AirNav   Everest Fuels
 
 1057 users online  

08PA Pocono Raceway Corporate Heliport
Long Pond, Pennsylvania, USA

GOING TO LONG POND?


FAA INFORMATION EFFECTIVE 18 JUNE 2020

Location

FAA Identifier: 08PA
Lat/Long: 41-03-30.3160N 075-29-58.6710W
41-03.505267N 075-29.977850W
41.0584211,-75.4996308
(estimated)
Elevation: 1812 ft. / 552 m (estimated)
Variation: 12W (1985)
From city: 1 mile W of LONG POND, PA
Time zone: UTC -4 (UTC -5 during Standard Time)
Zip code: 18334

Heliport Operations

Heliport use: Private use. Permission required prior to landing
Activation date: 01/1977
Control tower: no
ARTCC: NEW YORK CENTER
FSS: WILLIAMSPORT FLIGHT SERVICE STATION
Attendance: UNATNDD
Wind indicator: yes
Segmented circle: yes

Heliport Communications

WX ASOS at MPO (7 nm NE): 120.275 (570-839-1584)
WX AWOS-3PT at 22N (19 nm SW): 119.350 (570-386-3423)
WX ASOS at AVP (20 nm NW): 111.6 (570-655-0748)

Nearby radio navigation aids

VOR radial/distance  VOR name  Freq  Var
LVZr156/15.5WILKES-BARRE VORTAC111.6010W
FJCr004/20.0ALLENTOWN VORTAC117.5010W
STWr288/28.8STILLWATER VOR/DME109.6011W
ETXr025/29.8EAST TEXAS VOR/DME110.2009W
BWZr308/34.5BROADWAY VOR/DME114.2011W

Heliport Services

Runway Information

Helipad H1

Dimensions: 80 x 80 ft. / 24 x 24 m
Surface: turf
Traffic pattern: leftleft

Heliport Ownership and Management from official FAA records

Ownership: Privately-owned
Owner: POCONO RACEWAY
1234 LONG POND RD
LONG POND, PA 18334
Phone 570-646-2300
Manager: KEVIN HENRY
1234 LONG POND RD
LONG POND, PA 18334
Phone 570-643-7160

Additional Remarks

FOR CD CTC WILKES-BARRE APCH AT 570-655-2084.

Instrument Procedures

There are no published instrument procedures at 08PA.

Some nearby airports with instrument procedures:

KMPO - Pocono Mountains Municipal Airport (7 nm NE)
N53 - Stroudsburg-Pocono Airport (15 nm E)
70N - Spring Hill Airport (18 nm N)
22N - Jake Arner Memorial Airport (19 nm SW)
KAVP - Wilkes-Barre/Scranton International Airport (20 nm NW)
 
Loc | Ops | Rwys | IFR | FBO | Links
Com | Nav | Svcs | Stats | Notes
Area around 08PA (Pocono Raceway Corporate Heliport)
 
Road maps at: MapQuest Bing Google
 
Aerial photo
No photo
 
Sectional chart

 
Airport distance calculator
Flying to Pocono Raceway Corporate Heliport? Find the distance to fly.

From to 08PA

Sunrise and sunset
Times for 02-Jul-2020
 Local
(UTC-4)
 Zulu
(UTC)
Morning civil twilight05:0209:02
Sunrise05:3509:35
Sunset20:3700:37
Evening civil twilight21:1001:10

Current date and time
Zulu (UTC)  02-Jul-2020 23:17:56
Local (UTC-4)  02-Jul-2020 19:17:56
 
METAR
KMPO 
7nm NE 
022253Z AUTO 31010KT 10SM CLR 27/16 A2991 RMK AO2 SLP114 T02670156
K22N 
19nm SW 
022255Z AUTO 00000KT 10SM CLR 31/19 A2983 RMK AO2
KAVP 
20nm NW 
022254Z 34006KT 10SM SCT120 32/16 A2985 RMK AO2 SLP099 T03170156
TAF
KAVP 
20nm NW 
021720Z 0218/0318 31009G16KT P6SM SCT250 FM030200 33003KT P6SM BKN250 FM031200 30004KT P6SM BKN100
NOTAMs
Click for the latest NOTAMs
NOTAMs are issued by the DoD/FAA and will open in a separate window not controlled by AirNav.

 

 
 

Would you like to see your business listed on this page?

 If your business provides an interesting product or service to pilots, flight crews, aircraft, or users of the Pocono Raceway Corporate Heliport, you should consider listing it here.  To start the listing process, click on the button below
 
Add a business
 

Other Pages about Pocono Raceway Corporate Heliport

Update a link
 
Copyright © AirNav, LLC. All rights reserved. Privacy Policy  Contact